Time;durP1;ratioP1;P1;durP2;ratioP2;P2;SDS_P1;SDS_P2;PMS_P1;PMS_P2;Temp;Humidity;BMP_temperature;BMP_pressure;BME280_temperature;BME280_humidity;BME280_pressure;Samples;Min_cycle;Max_cycle;Signal;HPM_P1;HPM_P2
2021/09/27 00:01:02;;;;;;;23.05;13.63;;;16.50;99.90;;;;;;4990163;28;20399;-70
2021/09/27 00:03:30;;;;;;;19.45;14.32;;;16.50;99.90;;;;;;5004368;28;20520;-69
2021/09/27 00:05:58;;;;;;;19.55;13.25;;;16.40;99.90;;;;;;4995169;28;20061;-70
2021/09/27 00:08:25;;;;;;;21.17;13.68;;;16.30;99.90;;;;;;5001952;28;20055;-71
2021/09/27 00:10:56;;;;;;;19.88;14.38;;;16.30;99.90;;;;;;4999117;28;20498;-69
2021/09/27 00:13:26;;;;;;;20.00;14.40;;;16.50;99.90;;;;;;5014494;28;20058;-71
2021/09/27 00:15:55;;;;;;;17.73;14.00;;;16.60;99.90;;;;;;4998668;28;20072;-71
2021/09/27 00:18:22;;;;;;;19.10;14.85;;;16.60;99.90;;;;;;5002278;28;20057;-71
2021/09/27 00:20:54;;;;;;;18.55;14.00;;;16.60;99.90;;;;;;5003384;28;20120;-71
2021/09/27 00:23:21;;;;;;;21.70;15.07;;;16.60;99.90;;;;;;5003519;28;20054;-71
2021/09/27 00:25:48;;;;;;;22.02;14.43;;;16.50;99.90;;;;;;5004511;28;20049;-71
2021/09/27 00:28:16;;;;;;;21.65;14.93;;;16.50;99.90;;;;;;4997495;28;20057;-71
2021/09/27 00:30:44;;;;;;;24.30;15.85;;;16.60;99.90;;;;;;5001895;28;20045;-71
2021/09/27 00:33:11;;;;;;;20.90;14.57;;;16.60;99.90;;;;;;5003851;28;20046;-71
2021/09/27 00:35:38;;;;;;;25.30;15.98;;;16.50;99.90;;;;;;4981538;28;20054;-71
2021/09/27 00:38:08;;;;;;;22.02;15.32;;;16.40;99.90;;;;;;5003794;28;20132;-71
2021/09/27 00:40:49;;;;;;;24.60;17.20;;;16.60;99.90;;;;;;5000372;28;20050;-70
2021/09/27 00:43:17;;;;;;;23.80;17.08;;;16.70;99.90;;;;;;5001372;28;20050;-70
2021/09/27 00:45:47;;;;;;;25.58;16.15;;;16.50;99.90;;;;;;4999667;28;20054;-70
2021/09/27 00:48:15;;;;;;;22.15;15.07;;;16.50;99.90;;;;;;4994242;28;20140;-70
2021/09/27 00:50:51;;;;;;;30.80;16.75;;;16.40;99.90;;;;;;4996099;28;20541;-70
2021/09/27 00:53:48;;;;;;;25.38;16.23;;;16.40;99.90;;;;;;5001973;28;20038;-70
2021/09/27 00:56:19;;;;;;;23.48;15.82;;;16.20;99.90;;;;;;4995302;28;20057;-70
2021/09/27 00:58:47;;;;;;;24.63;16.17;;;16.10;99.90;;;;;;4995002;28;20043;-70
2021/09/27 01:01:15;;;;;;;25.67;17.98;;;15.90;99.90;;;;;;4993428;28;20076;-71
2021/09/27 01:03:43;;;;;;;25.38;17.08;;;15.90;99.90;;;;;;4996066;28;20137;-71
2021/09/27 01:06:16;;;;;;;25.35;17.30;;;15.90;99.90;;;;;;4999898;28;20057;-71
2021/09/27 01:08:52;;;;;;;29.55;18.05;;;15.90;99.90;;;;;;4998212;28;20057;-70
2021/09/27 01:11:18;;;;;;;29.83;18.75;;;15.80;99.90;;;;;;5000413;28;20128;-70
2021/09/27 01:14:13;;;;;;;31.25;18.08;;;15.90;99.90;;;;;;5002752;28;20046;-70
2021/09/27 01:16:52;;;;;;;31.00;20.08;;;15.90;99.90;;;;;;5002200;28;20231;-70
2021/09/27 01:20:02;;;;;;;30.25;18.55;;;15.90;99.90;;;;;;5006129;28;20045;-70
2021/09/27 01:22:48;;;;;;;29.33;17.58;;;15.90;99.90;;;;;;5007922;28;20060;-70
2021/09/27 01:25:23;;;;;;;24.75;18.75;;;15.90;99.90;;;;;;5005104;28;20418;-70
2021/09/27 01:28:34;;;;;;;28.80;18.98;;;16.00;99.90;;;;;;4990079;28;20054;-70
2021/09/27 01:31:40;;;;;;;24.67;17.98;;;16.00;99.90;;;;;;4993205;28;20072;-71
2021/09/27 01:34:16;;;;;;;25.88;17.38;;;16.20;99.90;;;;;;4991094;28;20058;-71
2021/09/27 01:36:54;;;;;;;26.30;16.63;;;16.20;99.90;;;;;;4981095;28;20043;-70
2021/09/27 01:39:33;;;;;;;27.08;18.33;;;16.30;99.90;;;;;;4980137;28;20446;-70
2021/09/27 01:42:08;;;;;;;28.63;16.30;;;16.40;99.90;;;;;;5006964;28;20069;-70
2021/09/27 01:44:51;;;;;;;27.23;17.23;;;16.40;99.90;;;;;;5007247;28;20411;-70
2021/09/27 01:47:32;;;;;;;26.67;17.48;;;16.40;99.90;;;;;;5006590;28;20514;-70
2021/09/27 01:50:07;;;;;;;30.58;19.65;;;16.40;99.90;;;;;;5003173;28;20072;-70
2021/09/27 01:52:58;;;;;;;32.38;19.70;;;16.20;99.90;;;;;;4991201;28;20050;-70
2021/09/27 01:55:56;;;;;;;33.50;21.63;;;16.00;99.90;;;;;;5019339;28;20056;-70
2021/09/27 01:58:25;;;;;;;36.95;22.50;;;15.80;99.90;;;;;;5006288;28;20060;-70
2021/09/27 02:00:59;;;;;;;33.33;21.13;;;15.90;99.90;;;;;;5006549;28;20053;-70
2021/09/27 02:04:01;;;;;;;33.78;21.13;;;15.90;99.90;;;;;;5003934;28;20050;-71
2021/09/27 02:06:37;;;;;;;37.20;20.10;;;16.00;99.90;;;;;;5011932;28;20168;-70
2021/09/27 02:09:12;;;;;;;30.58;20.52;;;16.00;99.90;;;;;;4999276;28;20060;-71
2021/09/27 02:11:41;;;;;;;;;;;16.10;99.90;;;;;;5008171;28;20050;-70
2021/09/27 02:14:20;;;;;;;33.10;18.83;;;16.10;99.90;;;;;;5007237;28;19943;-70
2021/09/27 02:17:09;;;;;;;36.50;20.67;;;16.20;99.90;;;;;;5003573;28;20301;-70
2021/09/27 02:19:49;;;;;;;29.60;19.40;;;16.20;99.90;;;;;;5007251;28;20057;-70
2021/09/27 02:22:24;;;;;;;30.10;20.42;;;16.00;99.90;;;;;;4973333;28;20046;-70
2021/09/27 02:25:12;;;;;;;39.97;22.30;;;16.00;99.90;;;;;;5005961;28;20046;-70
2021/09/27 02:27:40;;;;;;;35.85;20.75;;;16.00;99.90;;;;;;4988400;28;20057;-71
2021/09/27 02:30:11;;;;;;;32.30;20.42;;;16.00;99.90;;;;;;4982967;28;20056;-71
2021/09/27 02:32:49;;;;;;;28.75;20.33;;;16.10;99.90;;;;;;5005109;28;20502;-70
2021/09/27 02:35:32;;;;;;;29.77;19.58;;;16.00;99.90;;;;;;4995018;28;20216;-70
2021/09/27 02:38:08;;;;;;;30.92;20.83;;;16.00;99.90;;;;;;5005307;28;20053;-70
2021/09/27 02:40:50;;;;;;;31.00;21.60;;;16.00;99.90;;;;;;5004213;28;20053;-69
2021/09/27 02:43:17;;;;;;;35.17;20.55;;;16.10;99.90;;;;;;4988066;28;20053;-70
2021/09/27 02:45:45;;;;;;;29.42;20.00;;;16.20;99.90;;;;;;5006693;28;20096;-70
2021/09/27 02:48:20;;;;;;;35.13;20.73;;;16.30;99.90;;;;;;5009879;28;20058;-70
2021/09/27 02:50:53;;;;;;;33.80;20.63;;;16.30;99.90;;;;;;5008733;28;20053;-70
2021/09/27 02:53:21;;;;;;;30.73;20.70;;;16.40;99.90;;;;;;5008015;28;20046;-70
2021/09/27 02:56:02;;;;;;;33.97;21.33;;;16.30;99.90;;;;;;5002516;28;20046;-70
2021/09/27 02:58:36;;;;;;;34.92;23.25;;;16.20;99.90;;;;;;4993421;28;20387;-70
2021/09/27 03:01:36;;;;;;;39.30;23.90;;;16.20;99.90;;;;;;4990366;28;20054;-70
2021/09/27 03:04:19;;;;;;;36.33;24.02;;;16.30;99.90;;;;;;4987812;28;20051;-70
2021/09/27 03:07:04;;;;;;;37.60;24.45;;;16.30;99.90;;;;;;4987156;28;20046;-70
2021/09/27 03:09:49;;;;;;;33.85;22.63;;;16.20;99.90;;;;;;4988544;28;20057;-70
2021/09/27 03:12:50;;;;;;;39.63;25.50;;;16.20;99.90;;;;;;5005298;28;20057;-70
2021/09/27 03:15:39;;;;;;;40.72;26.15;;;16.10;99.90;;;;;;5003571;28;20050;-70
2021/09/27 03:18:47;;;;;;;43.20;27.02;;;16.30;99.90;;;;;;4968999;28;20045;-70
2021/09/27 03:21:24;;;;;;;41.13;25.48;;;16.30;99.90;;;;;;5005838;28;20056;-69
2021/09/27 03:24:17;;;;;;;39.53;24.70;;;16.20;99.90;;;;;;5004636;28;20060;-69
2021/09/27 03:27:01;;;;;;;40.85;24.52;;;16.30;99.90;;;;;;5005184;28;20418;-70
2021/09/27 03:29:49;;;;;;;43.28;25.83;;;16.20;99.90;;;;;;5006440;28;20065;-70
2021/09/27 03:32:44;;;;;;;42.50;25.27;;;16.00;99.90;;;;;;5003480;28;20140;-70
2021/09/27 03:35:19;;;;;;;38.92;25.17;;;16.10;99.90;;;;;;4981565;28;20100;-69
2021/09/27 03:37:54;;;;;;;;;;;16.20;99.90;;;;;;5000152;28;20375;-71
2021/09/27 03:40:42;;;;;;;44.75;26.60;;;16.20;99.90;;;;;;5001609;28;19921;-69
2021/09/27 03:43:32;;;;;;;34.88;24.08;;;16.30;99.90;;;;;;5004288;28;20056;-69
2021/09/27 03:46:08;;;;;;;39.63;26.55;;;16.20;99.90;;;;;;5004538;28;20494;-69
2021/09/27 03:49:07;;;;;;;43.53;27.15;;;16.10;99.90;;;;;;4987821;28;20194;-70
2021/09/27 03:52:02;;;;;;;40.47;26.13;;;16.10;99.90;;;;;;4998330;28;20046;-70
2021/09/27 03:54:35;;;;;;;39.35;25.95;;;16.10;99.90;;;;;;5005824;28;20292;-69
2021/09/27 03:57:14;;;;;;;40.83;26.90;;;16.10;99.90;;;;;;4986419;28;20525;-70
2021/09/27 04:00:03;;;;;;;39.08;26.48;;;16.10;99.90;;;;;;5005396;28;20050;-70
2021/09/27 04:02:53;;;;;;;42.78;29.23;;;16.00;99.90;;;;;;4991001;28;20061;-70
2021/09/27 04:05:29;;;;;;;42.05;27.83;;;16.00;99.90;;;;;;4992334;28;20065;-70
2021/09/27 04:08:13;;;;;;;44.80;28.60;;;16.00;99.90;;;;;;5004185;28;20057;-69
2021/09/27 04:10:59;;;;;;;43.83;27.60;;;15.90;99.90;;;;;;5004349;28;20081;-69
2021/09/27 04:13:31;;;;;;;41.50;28.60;;;15.90;99.90;;;;;;5004809;28;20517;-69
2021/09/27 04:16:18;;;;;;;49.50;29.52;;;15.80;99.90;;;;;;5003198;28;20050;-70
2021/09/27 04:19:16;;;;;;;51.22;29.15;;;15.70;99.90;;;;;;4980176;28;20042;-70
2021/09/27 04:22:14;;;;;;;44.80;28.15;;;15.60;99.90;;;;;;5002660;28;20050;-69
2021/09/27 04:24:46;;;;;;;43.45;28.83;;;15.60;99.90;;;;;;5005101;28;20054;-70
2021/09/27 04:27:25;;;;;;;53.20;30.35;;;15.60;99.90;;;;;;5004622;28;20068;-69
2021/09/27 04:29:55;;;;;;;45.67;28.90;;;15.50;99.90;;;;;;5004287;28;20379;-70
2021/09/27 04:32:47;;;;;;;51.15;29.73;;;15.40;99.90;;;;;;4994386;28;20049;-69
2021/09/27 04:35:32;;;;;;;46.92;29.95;;;15.40;99.90;;;;;;4988334;28;20128;-70
2021/09/27 04:38:01;;;;;;;52.55;31.08;;;15.30;99.90;;;;;;4987571;28;20058;-69
2021/09/27 04:40:59;;;;;;;56.85;31.73;;;15.30;99.90;;;;;;5001880;28;20438;-69
2021/09/27 04:44:00;;;;;;;46.30;28.77;;;15.20;99.90;;;;;;5005719;28;20088;-70
2021/09/27 04:46:56;;;;;;;49.65;29.48;;;14.90;99.90;;;;;;5001983;28;20123;-70
2021/09/27 04:49:35;;;;;;;61.30;34.60;;;14.80;99.90;;;;;;5002789;28;20391;-70
2021/09/27 04:52:15;;;;;;;63.35;32.28;;;14.90;99.90;;;;;;5002457;28;20350;-70
2021/09/27 04:54:44;;;;;;;59.70;31.50;;;14.90;99.90;;;;;;4987968;28;20056;-69
2021/09/27 04:57:25;;;;;;;57.90;31.90;;;14.90;99.90;;;;;;4985824;28;20052;-69
2021/09/27 05:00:00;;;;;;;60.25;32.53;;;14.80;99.90;;;;;;4987595;28;20144;-70
2021/09/27 05:03:00;;;;;;;62.40;35.13;;;14.70;99.90;;;;;;4991394;28;20042;-70
2021/09/27 05:05:52;;;;;;;63.08;33.97;;;14.60;99.90;;;;;;4992587;28;20054;-70
2021/09/27 05:08:40;;;;;;;61.55;33.70;;;14.60;99.90;;;;;;4997427;28;20046;-70
2021/09/27 05:11:21;;;;;;;54.85;31.67;;;14.50;99.90;;;;;;4984533;28;20144;-69
2021/09/27 05:14:03;;;;;;;52.72;30.77;;;14.40;99.90;;;;;;5001991;28;20514;-69
2021/09/27 05:16:54;;;;;;;55.17;29.70;;;14.40;99.90;;;;;;4985556;28;20061;-69
2021/09/27 05:19:33;;;;;;;58.60;32.55;;;14.30;99.90;;;;;;5002541;28;20081;-69
2021/09/27 05:22:15;;;;;;;53.58;30.38;;;14.30;99.90;;;;;;5002270;28;20053;-69
2021/09/27 05:25:03;;;;;;;60.70;32.10;;;14.20;99.90;;;;;;4994601;28;20046;-68
2021/09/27 05:27:42;;;;;;;60.25;31.98;;;14.10;99.90;;;;;;5002696;28;20103;-69
2021/09/27 05:30:50;;;;;;;50.13;29.77;;;14.20;99.90;;;;;;4999948;28;20507;-69
2021/09/27 05:33:48;;;;;;;66.57;32.97;;;14.10;99.90;;;;;;5000138;28;20049;-68
2021/09/27 05:36:14;;;;;;;54.00;31.50;;;14.10;99.90;;;;;;5000888;28;20049;-70
2021/09/27 05:38:44;;;;;;;55.13;30.38;;;13.90;99.90;;;;;;4984577;28;20058;-71
2021/09/27 05:41:35;;;;;;;53.17;30.52;;;13.70;99.90;;;;;;5003286;28;20527;-70
2021/09/27 05:44:16;;;;;;;65.10;33.67;;;13.70;99.90;;;;;;5003629;28;20514;-70
2021/09/27 05:46:57;;;;;;;74.03;36.33;;;13.70;99.90;;;;;;5000805;28;20041;-70
2021/09/27 05:49:37;;;;;;;58.80;31.70;;;13.80;99.90;;;;;;5002591;28;20050;-70
2021/09/27 05:52:14;;;;;;;60.90;30.50;;;13.80;99.90;;;;;;5002032;28;20061;-70
2021/09/27 05:55:06;;;;;;;56.15;30.27;;;13.60;99.90;;;;;;5002665;28;20458;-70
2021/09/27 05:57:57;;;;;;;54.20;29.33;;;13.70;99.90;;;;;;5003003;28;20054;-70
2021/09/27 06:00:54;;;;;;;57.72;30.10;;;13.90;99.90;;;;;;4983716;28;20061;-70
2021/09/27 06:03:35;;;;;;;55.20;30.13;;;13.90;99.90;;;;;;4996511;28;20054;-70
2021/09/27 06:06:26;;;;;;;56.58;31.98;;;13.90;99.90;;;;;;5016484;28;20060;-70
2021/09/27 06:09:09;;;;;;;51.90;30.30;;;13.70;99.90;;;;;;5007143;28;20440;-70
2021/09/27 06:11:35;;;;;;;53.10;30.40;;;13.70;99.90;;;;;;5005259;28;20053;-70
2021/09/27 06:14:04;;;;;;;52.38;29.33;;;13.60;99.90;;;;;;5007958;28;20510;-70
2021/09/27 06:16:49;;;;;;;47.60;28.95;;;13.60;99.90;;;;;;5005349;28;20041;-70
2021/09/27 06:19:22;;;;;;;;;;;13.70;99.90;;;;;;4997068;28;20137;-70
2021/09/27 06:22:06;;;;;;;53.13;30.05;;;13.80;99.90;;;;;;5000917;28;19922;-70
2021/09/27 06:24:56;;;;;;;53.72;29.75;;;13.90;99.90;;;;;;5007553;28;20305;-70
2021/09/27 06:27:45;;;;;;;63.55;35.17;;;14.00;99.90;;;;;;5004914;28;20053;-70
2021/09/27 06:30:28;;;;;;;66.47;35.05;;;14.10;99.90;;;;;;4988573;28;20069;-70
2021/09/27 06:33:21;;;;;;;62.83;34.30;;;14.10;99.90;;;;;;4976484;28;20275;-70
2021/09/27 06:35:50;;;;;;;56.03;32.42;;;14.20;99.90;;;;;;5002061;28;20434;-70
2021/09/27 06:38:24;;;;;;;60.45;32.13;;;14.20;99.90;;;;;;5001550;28;20054;-70
2021/09/27 06:40:51;;;;;;;57.93;32.93;;;14.20;99.90;;;;;;5006122;28;20477;-70
2021/09/27 06:43:21;;;;;;;53.72;31.58;;;14.20;99.90;;;;;;5005786;28;20312;-70
2021/09/27 06:45:49;;;;;;;53.47;30.00;;;14.30;99.90;;;;;;4988275;28;20053;-70
2021/09/27 06:48:16;;;;;;;46.17;29.02;;;14.40;99.90;;;;;;5003355;28;20076;-71
2021/09/27 06:50:43;;;;;;;48.10;29.23;;;14.50;99.90;;;;;;5003182;28;20424;-70
2021/09/27 06:53:10;;;;;;;39.95;26.88;;;14.60;99.90;;;;;;5003209;28;20053;-70
2021/09/27 06:55:37;;;;;;;41.47;25.83;;;14.70;99.90;;;;;;5003485;28;20099;-70
2021/09/27 06:58:04;;;;;;;35.60;26.23;;;14.80;99.90;;;;;;5005031;28;20116;-70
2021/09/27 07:00:31;;;;;;;30.23;22.08;;;15.00;99.90;;;;;;5003929;28;20065;-68
2021/09/27 07:02:59;;;;;;;28.63;20.27;;;15.10;99.90;;;;;;5004844;28;20068;-70
2021/09/27 07:05:26;;;;;;;31.73;23.42;;;15.20;99.90;;;;;;4999751;28;20153;-70
2021/09/27 07:07:53;;;;;;;31.92;20.77;;;15.40;99.90;;;;;;5004991;28;20092;-69
2021/09/27 07:10:22;;;;;;;28.88;19.33;;;15.40;99.90;;;;;;5003431;28;20089;-69
2021/09/27 07:12:50;;;;;;;27.38;19.25;;;15.50;99.90;;;;;;5005676;28;20092;-69
2021/09/27 07:15:18;;;;;;;31.50;20.48;;;15.60;99.90;;;;;;5005876;28;20054;-68
2021/09/27 07:17:45;;;;;;;26.70;18.33;;;15.70;99.90;;;;;;5005452;28;20104;-69
2021/09/27 07:20:18;;;;;;;22.42;17.48;;;15.80;99.90;;;;;;5001666;28;20391;-69
2021/09/27 07:22:46;;;;;;;24.87;17.87;;;15.80;99.90;;;;;;5005930;28;20064;-69
2021/09/27 07:25:16;;;;;;;24.95;18.52;;;15.70;99.90;;;;;;5002430;28;20371;-70
2021/09/27 07:27:43;;;;;;;24.92;18.50;;;15.60;99.90;;;;;;5005659;28;20053;-69
2021/09/27 07:30:12;;;;;;;25.00;19.00;;;15.50;99.90;;;;;;5005860;28;20046;-70
2021/09/27 07:32:40;;;;;;;27.92;18.98;;;15.60;99.90;;;;;;5000198;28;20136;-69
2021/09/27 07:35:09;;;;;;;25.40;19.88;;;15.60;99.90;;;;;;5004417;28;20057;-68
2021/09/27 07:37:38;;;;;;;26.65;19.92;;;15.60;99.90;;;;;;5005632;28;20133;-69
2021/09/27 07:40:08;;;;;;;33.20;21.15;;;15.70;99.90;;;;;;5005645;28;20057;-68
2021/09/27 07:42:35;;;;;;;26.65;18.60;;;15.90;99.90;;;;;;5006926;28;20053;-68
2021/09/27 07:45:04;;;;;;;23.52;18.65;;;16.10;99.90;;;;;;5005426;28;20049;-68
2021/09/27 07:47:31;;;;;;;23.08;18.10;;;16.20;99.90;;;;;;4998102;28;20046;-68
2021/09/27 07:49:58;;;;;;;24.13;18.40;;;16.20;99.90;;;;;;4998786;28;20050;-69
2021/09/27 07:52:25;;;;;;;23.90;17.77;;;16.10;99.90;;;;;;5003180;28;20133;-69
2021/09/27 07:54:52;;;;;;;22.92;17.23;;;16.10;99.90;;;;;;5004945;28;20054;-69
2021/09/27 07:57:19;;;;;;;22.75;16.40;;;16.20;99.90;;;;;;5003233;28;20052;-69
2021/09/27 07:59:47;;;;;;;18.23;14.35;;;16.30;99.90;;;;;;5006740;28;20042;-69
2021/09/27 08:02:18;;;;;;;18.17;14.90;;;16.40;99.90;;;;;;4986266;28;20046;-68
2021/09/27 08:04:46;;;;;;;16.58;13.23;;;16.70;99.90;;;;;;4994764;28;20258;-69
2021/09/27 08:07:15;;;;;;;15.93;14.07;;;17.00;99.90;;;;;;5004200;28;20210;-69
2021/09/27 08:09:41;;;;;;;19.30;15.20;;;17.20;99.90;;;;;;5004277;28;20062;-69
2021/09/27 08:12:08;;;;;;;18.98;14.52;;;17.40;99.90;;;;;;4989225;28;20047;-68
2021/09/27 08:14:35;;;;;;;16.08;13.68;;;17.70;99.90;;;;;;4986307;28;20371;-68
2021/09/27 08:17:03;;;;;;;14.07;12.55;;;17.80;99.90;;;;;;4985422;28;20054;-70
2021/09/27 08:19:30;;;;;;;14.98;12.23;;;17.80;99.90;;;;;;4987678;28;20046;-68
2021/09/27 08:21:57;;;;;;;16.85;12.57;;;18.00;99.90;;;;;;4969701;28;20050;-69
2021/09/27 08:24:24;;;;;;;15.85;13.02;;;18.00;99.90;;;;;;4985338;28;20054;-69
2021/09/27 08:26:50;;;;;;;14.10;12.23;;;18.10;99.90;;;;;;4989366;28;20123;-68
2021/09/27 08:29:18;;;;;;;15.50;11.98;;;18.20;99.90;;;;;;5003093;28;20054;-69
2021/09/27 08:31:45;;;;;;;14.63;11.40;;;18.20;99.90;;;;;;4990199;28;20046;-70
2021/09/27 08:34:12;;;;;;;14.77;11.68;;;18.20;99.90;;;;;;4989121;28;20043;-69
2021/09/27 08:36:39;;;;;;;16.63;11.27;;;18.30;99.90;;;;;;4983875;28;20046;-68
2021/09/27 08:39:06;;;;;;;14.68;11.57;;;18.40;99.90;;;;;;4991852;28;20110;-70
2021/09/27 08:41:40;;;;;;;15.48;11.02;;;18.50;99.90;;;;;;5004595;28;20187;-69
2021/09/27 08:44:36;;;;;;;13.93;10.70;;;18.50;99.90;;;;;;5004121;28;20069;-69
2021/09/27 08:47:34;;;;;;;14.05;10.40;;;18.70;99.90;;;;;;4969390;28;20303;-70
2021/09/27 08:50:06;;;;;;;13.27;10.32;;;18.90;99.90;;;;;;5001288;28;20065;-69
2021/09/27 08:52:36;;;;;;;11.43;9.85;;;18.80;99.90;;;;;;5000980;28;20050;-69
2021/09/27 08:55:08;;;;;;;11.95;10.40;;;18.60;99.90;;;;;;5005316;28;20060;-69
2021/09/27 08:57:59;;;;;;;11.82;10.30;;;18.70;99.90;;;;;;5002148;28;20525;-69
2021/09/27 09:00:45;;;;;;;11.13;10.02;;;18.80;99.90;;;;;;5002427;28;20046;-69
2021/09/27 09:03:38;;;;;;;11.65;9.93;;;18.70;99.90;;;;;;5004183;28;20108;-70
2021/09/27 09:06:14;;;;;;;10.35;9.23;;;18.60;99.90;;;;;;4991865;28;20082;-67
2021/09/27 09:08:50;;;;;;;10.88;9.68;;;18.30;99.90;;;;;;5003405;28;20333;-70
2021/09/27 09:11:43;;;;;;;10.05;9.02;;;18.30;99.90;;;;;;4999809;28;20506;-70
2021/09/27 09:14:33;;;;;;;12.50;9.13;;;18.50;99.90;;;;;;5004074;28;20054;-69
2021/09/27 09:17:14;;;;;;;11.18;9.07;;;18.70;99.90;;;;;;4982088;28;20326;-70
2021/09/27 09:19:41;;;;;;;10.52;8.15;;;19.10;99.90;;;;;;4983559;28;20387;-70
2021/09/27 09:22:28;;;;;;;9.63;8.65;;;19.30;99.90;;;;;;4999387;28;20034;-70
2021/09/27 09:24:56;;;;;;;10.10;9.18;;;19.20;99.90;;;;;;4993884;28;20105;-69
2021/09/27 09:27:24;;;;;;;10.38;9.57;;;19.30;99.90;;;;;;4980833;28;20058;-71
2021/09/27 09:29:52;;;;;;;10.55;9.55;;;19.60;99.90;;;;;;4985247;28;20117;-70
2021/09/27 09:32:39;;;;;;;10.18;9.18;;;19.70;99.90;;;;;;4983730;28;20391;-71
2021/09/27 09:35:20;;;;;;;11.55;10.52;;;20.10;99.90;;;;;;4989810;28;20069;-69
2021/09/27 09:37:54;;;;;;;12.18;10.93;;;20.30;99.90;;;;;;4996284;28;20539;-70
2021/09/27 09:40:27;;;;;;;10.67;9.67;;;20.00;99.90;;;;;;5009157;28;20108;-70
2021/09/27 09:43:12;;;;;;;12.13;10.93;;;20.10;99.90;;;;;;5006492;28;20107;-70
2021/09/27 09:45:48;;;;;;;11.00;10.00;;;19.80;99.90;;;;;;5006807;28;20057;-69
2021/09/27 09:48:20;;;;;;;11.38;10.20;;;19.60;99.90;;;;;;5005373;28;20068;-69
2021/09/27 09:50:50;;;;;;;11.35;10.32;;;19.60;99.90;;;;;;5005552;28;20067;-69
2021/09/27 09:53:29;;;;;;;11.23;10.18;;;19.60;99.90;;;;;;5007953;28;20498;-71
2021/09/27 09:56:04;;;;;;;11.55;10.55;;;19.70;99.90;;;;;;5005273;28;20060;-69
2021/09/27 09:58:41;;;;;;;12.18;10.95;;;19.80;99.90;;;;;;5004596;28;20086;-69
2021/09/27 10:01:27;;;;;;;12.02;10.93;;;20.00;99.90;;;;;;5003693;28;20052;-69
2021/09/27 10:04:12;;;;;;;12.10;11.13;;;20.20;99.90;;;;;;4988024;28;20054;-70
2021/09/27 10:06:44;;;;;;;;;;;20.40;99.90;;;;;;4988700;28;20062;-69
2021/09/27 10:09:36;;;;;;;13.85;12.75;;;20.50;99.90;;;;;;5002046;28;19932;-71
2021/09/27 10:12:27;;;;;;;14.55;13.32;;;20.70;99.90;;;;;;5004189;28;20334;-70
2021/09/27 10:14:56;;;;;;;14.85;13.55;;;20.70;99.90;;;;;;5005554;28;20065;-70
2021/09/27 10:17:29;;;;;;;14.85;13.35;;;20.70;99.90;;;;;;4999124;28;20042;-70
2021/09/27 10:20:17;;;;;;;14.18;12.98;;;20.60;99.90;;;;;;4993036;28;20057;-69
2021/09/27 10:23:11;;;;;;;14.55;13.38;;;20.50;99.90;;;;;;4985344;28;20146;-70
2021/09/27 10:25:43;;;;;;;15.23;13.73;;;20.60;99.90;;;;;;4987581;28;20057;-69
2021/09/27 10:28:14;;;;;;;15.27;14.10;;;21.00;99.90;;;;;;4988789;28;20684;-69
2021/09/27 10:30:56;;;;;;;16.10;14.30;;;21.20;99.90;;;;;;4994200;28;20053;-69
2021/09/27 10:33:27;;;;;;;15.57;14.20;;;21.60;99.90;;;;;;4965704;28;20498;-70
2021/09/27 10:36:11;;;;;;;14.73;13.52;;;21.50;99.90;;;;;;5001633;28;20061;-69
2021/09/27 10:38:46;;;;;;;15.35;13.95;;;21.40;99.90;;;;;;5005187;28;20057;-69
2021/09/27 10:41:21;;;;;;;15.13;13.88;;;21.40;99.90;;;;;;5004810;28;20061;-70
2021/09/27 10:43:51;;;;;;;15.23;13.98;;;21.30;99.90;;;;;;5004835;28;20053;-70
2021/09/27 10:46:21;;;;;;;14.85;13.45;;;21.20;99.90;;;;;;5001458;28;20046;-70
2021/09/27 10:48:53;;;;;;;15.18;13.88;;;21.10;99.90;;;;;;4985160;28;20058;-70
2021/09/27 10:51:25;;;;;;;15.20;13.93;;;21.00;99.90;;;;;;4993709;28;20058;-70
2021/09/27 10:54:04;;;;;;;15.57;14.27;;;21.00;99.90;;;;;;4984398;28;20399;-70
2021/09/27 10:56:48;;;;;;;15.00;13.80;;;21.00;99.90;;;;;;4996988;28;20054;-69
2021/09/27 10:59:33;;;;;;;14.32;12.98;;;21.00;99.90;;;;;;4989020;28;20056;-70
2021/09/27 11:02:13;;;;;;;15.97;14.53;;;21.00;99.90;;;;;;4994683;28;20108;-70
2021/09/27 11:04:44;;;;;;;15.45;14.05;;;20.90;99.90;;;;;;5003157;28;20046;-69
2021/09/27 11:07:30;;;;;;;14.15;12.80;;;20.70;99.90;;;;;;4989010;28;20042;-69
2021/09/27 11:10:14;;;;;;;14.63;13.43;;;20.80;99.90;;;;;;4998863;28;20096;-70
2021/09/27 11:12:43;;;;;;;15.23;13.88;;;20.80;99.90;;;;;;4995201;28;20049;-69
2021/09/27 11:15:35;;;;;;;15.43;14.07;;;20.70;99.90;;;;;;5002985;28;20083;-69
2021/09/27 11:18:03;;;;;;;16.10;14.52;;;20.60;99.90;;;;;;5002629;28;20042;-69
2021/09/27 11:20:39;;;;;;;15.35;13.85;;;20.50;99.90;;;;;;5004546;28;20277;-69
2021/09/27 11:23:24;;;;;;;14.35;12.93;;;20.70;99.90;;;;;;4986522;28;20053;-70
2021/09/27 11:26:19;;;;;;;14.95;13.68;;;20.90;99.90;;;;;;4989790;28;20045;-71
2021/09/27 11:29:16;;;;;;;15.70;14.13;;;21.00;99.90;;;;;;4992184;28;20058;-69
2021/09/27 11:31:44;;;;;;;15.90;14.43;;;21.00;99.90;;;;;;4994882;28;20033;-70
2021/09/27 11:34:42;;;;;;;15.45;14.13;;;20.90;99.90;;;;;;4997977;28;20042;-68
2021/09/27 11:37:27;;;;;;;15.40;13.90;;;21.10;99.90;;;;;;4986022;28;20553;-72
2021/09/27 11:40:06;;;;;;;15.38;14.05;;;21.10;99.90;;;;;;5001666;28;20037;-70
2021/09/27 11:42:54;;;;;;;16.45;14.90;;;21.00;99.90;;;;;;5018737;28;20252;-70
2021/09/27 11:45:33;;;;;;;16.15;14.73;;;20.80;99.90;;;;;;5019708;28;20068;-71
2021/09/27 11:48:28;;;;;;;15.85;14.43;;;20.90;99.90;;;;;;4985359;28;20169;-72
2021/09/27 11:51:07;;;;;;;16.30;14.80;;;21.10;99.90;;;;;;4976725;28;20065;-70
2021/09/27 11:54:01;;;;;;;16.20;14.20;;;21.00;99.90;;;;;;4997961;28;20054;-70
2021/09/27 11:56:57;;;;;;;17.00;15.10;;;20.90;99.90;;;;;;5001136;28;20054;-71
2021/09/27 11:59:54;;;;;;;16.27;14.48;;;21.10;99.90;;;;;;5001879;28;20123;-72
2021/09/27 12:02:27;;;;;;;15.55;14.32;;;21.30;99.90;;;;;;4990853;28;20049;-71
2021/09/27 12:05:12;;;;;;;15.07;13.60;;;21.40;99.90;;;;;;4994711;28;20354;-70
2021/09/27 12:07:50;;;;;;;15.48;14.18;;;21.40;99.90;;;;;;4984379;28;20046;-70
2021/09/27 12:10:25;;;;;;;15.00;13.88;;;21.30;99.90;;;;;;4972720;28;20053;-75
2021/09/27 12:13:14;;;;;;;16.50;15.20;;;21.40;99.90;;;;;;4989983;28;20495;-72
2021/09/27 12:15:46;;;;;;;15.90;14.48;;;21.60;99.90;;;;;;4971394;28;20406;-71
2021/09/27 12:18:38;;;;;;;15.00;13.90;;;21.70;99.90;;;;;;5002200;28;20057;-70
2021/09/27 12:21:13;;;;;;;14.90;13.60;;;21.60;99.90;;;;;;4999290;28;20301;-70
2021/09/27 12:23:47;;;;;;;14.10;12.88;;;21.60;99.90;;;;;;4954404;28;20474;-71
2021/09/27 12:26:27;;;;;;;14.20;13.10;;;21.80;99.90;;;;;;4981264;28;20050;-71
2021/09/27 12:29:05;;;;;;;13.52;12.23;;;21.70;99.90;;;;;;5001959;28;20214;-71
2021/09/27 12:31:32;;;;;;;14.38;13.25;;;21.60;99.90;;;;;;5005390;28;20245;-72
2021/09/27 12:34:11;;;;;;;15.00;13.68;;;21.20;99.90;;;;;;4989099;28;20387;-72
2021/09/27 12:36:38;;;;;;;14.32;13.13;;;21.10;99.90;;;;;;4980276;28;20521;-72
2021/09/27 12:39:06;;;;;;;13.35;12.43;;;21.20;99.90;;;;;;4980641;28;20052;-73
2021/09/27 12:41:34;;;;;;;13.75;12.65;;;21.40;99.90;;;;;;4982234;28;20057;-71
2021/09/27 12:44:14;;;;;;;12.90;11.77;;;21.40;99.90;;;;;;4993591;28;20053;-72
2021/09/27 12:46:44;;;;;;;14.00;12.52;;;21.20;99.90;;;;;;5000303;28;20564;-71
2021/09/27 12:49:12;;;;;;;12.88;11.88;;;21.00;99.90;;;;;;4999760;28;20309;-73
2021/09/27 12:51:46;;;;;;;13.15;11.95;;;21.10;99.90;;;;;;4999874;28;20062;-71
2021/09/27 12:54:35;;;;;;;12.65;11.55;;;21.30;99.90;;;;;;5001827;28;20138;-70
2021/09/27 12:57:07;;;;;;;13.13;11.75;;;21.10;99.90;;;;;;4998409;28;20086;-71
2021/09/27 12:59:35;;;;;;;13.23;11.90;;;20.90;99.90;;;;;;4998726;28;20073;-72
2021/09/27 13:02:06;;;;;;;17.52;15.65;;;20.90;99.90;;;;;;4999491;28;20318;-71
2021/09/27 13:04:43;;;;;;;17.27;15.35;;;20.80;99.90;;;;;;4982763;28;20072;-71
2021/09/27 13:07:16;;;;;;;13.52;12.32;;;20.80;99.90;;;;;;5000523;28;20057;-72
2021/09/27 13:09:58;;;;;;;11.55;10.68;;;20.90;99.90;;;;;;5002203;28;20050;-72
2021/09/27 13:12:31;;;;;;;11.00;9.85;;;20.80;99.90;;;;;;4970781;28;20069;-74
2021/09/27 13:15:13;;;;;;;11.65;10.00;;;20.80;99.90;;;;;;4994109;28;20060;-72
2021/09/27 13:18:06;;;;;;;11.10;9.93;;;20.80;99.90;;;;;;5006686;28;20058;-70
2021/09/27 13:20:32;;;;;;;11.20;10.30;;;20.80;99.90;;;;;;4990838;28;20439;-72
2021/09/27 13:23:01;;;;;;;11.13;10.18;;;20.80;99.90;;;;;;4987491;28;20108;-70